createdAt,value
2018-03-31T00:01:01.626Z,99.90
2018-03-31T00:03:32.021Z,99.90
2018-03-31T00:06:06.547Z,99.90
2018-03-31T00:08:41.397Z,99.90
2018-03-31T00:11:18.331Z,99.90
2018-03-31T00:13:48.772Z,99.90
2018-03-31T00:16:26.237Z,99.90
2018-03-31T00:19:01.642Z,99.90
2018-03-31T00:21:38.303Z,99.90
2018-03-31T00:24:14.945Z,99.90
2018-03-31T00:26:46.043Z,99.90
2018-03-31T00:29:15.921Z,99.90
2018-03-31T00:31:54.178Z,99.90
2018-03-31T00:34:29.883Z,99.90
2018-03-31T00:37:07.103Z,99.90
2018-03-31T00:39:43.144Z,99.90
2018-03-31T00:42:18.946Z,99.90
2018-03-31T00:44:49.438Z,99.90
2018-03-31T00:47:24.848Z,99.90
2018-03-31T00:50:02.116Z,99.90
2018-03-31T00:52:39.151Z,99.90
2018-03-31T00:55:15.730Z,99.90
2018-03-31T00:57:50.772Z,99.90
2018-03-31T01:00:26.889Z,99.90
2018-03-31T01:03:03.124Z,99.90
2018-03-31T01:05:38.288Z,99.90
2018-03-31T01:08:14.073Z,99.90
2018-03-31T01:10:49.786Z,99.90
2018-03-31T01:13:24.891Z,99.90
2018-03-31T01:16:02.054Z,99.90
2018-03-31T01:18:38.862Z,99.90
2018-03-31T01:21:16.293Z,99.90
2018-03-31T01:23:51.926Z,99.90
2018-03-31T01:26:21.888Z,99.90
2018-03-31T01:28:58.607Z,99.90
2018-03-31T01:31:35.664Z,99.90
2018-03-31T01:34:12.741Z,99.90
2018-03-31T01:36:43.030Z,99.90
2018-03-31T01:39:13.031Z,99.90
2018-03-31T01:41:48.382Z,99.90
2018-03-31T01:44:23.873Z,99.90
2018-03-31T01:46:59.666Z,99.90
2018-03-31T01:49:35.406Z,99.90
2018-03-31T01:52:11.785Z,99.90
2018-03-31T01:54:47.168Z,99.90
2018-03-31T01:57:23.505Z,99.90
2018-03-31T02:00:06.524Z,99.90
2018-03-31T02:02:42.092Z,99.90
2018-03-31T02:05:19.363Z,99.90
2018-03-31T02:07:55.576Z,99.90
2018-03-31T02:10:35.228Z,99.90
2018-03-31T02:13:14.833Z,99.90
2018-03-31T02:15:50.831Z,99.90
2018-03-31T02:18:27.044Z,99.90
2018-03-31T02:21:03.903Z,99.90
2018-03-31T02:23:40.660Z,99.90
2018-03-31T02:26:18.605Z,99.90
2018-03-31T02:28:57.400Z,99.90
2018-03-31T02:31:37.084Z,99.90
2018-03-31T02:34:12.105Z,99.90
2018-03-31T02:36:47.317Z,99.90
2018-03-31T02:39:21.669Z,99.90
2018-03-31T02:41:57.664Z,99.90
2018-03-31T02:44:35.760Z,99.90
2018-03-31T02:47:12.757Z,99.90
2018-03-31T02:49:48.242Z,99.90
2018-03-31T02:52:26.143Z,99.90
2018-03-31T02:55:02.391Z,99.90
2018-03-31T02:57:39.016Z,99.90
2018-03-31T03:00:17.146Z,99.90
2018-03-31T03:02:53.638Z,99.90
2018-03-31T03:05:30.326Z,99.90
2018-03-31T03:08:05.658Z,99.90
2018-03-31T03:10:41.090Z,99.90
2018-03-31T03:13:17.749Z,99.90
2018-03-31T03:15:54.320Z,99.90
2018-03-31T03:18:30.230Z,99.90
2018-03-31T03:21:08.746Z,99.90
2018-03-31T03:23:45.445Z,99.90
2018-03-31T03:26:23.312Z,99.90
2018-03-31T03:28:59.020Z,99.90
2018-03-31T03:31:35.255Z,99.90
2018-03-31T03:34:10.285Z,99.90
2018-03-31T03:36:46.225Z,99.90
2018-03-31T03:39:21.403Z,99.90
2018-03-31T03:41:57.842Z,99.90
2018-03-31T03:44:34.017Z,99.90
2018-03-31T03:47:10.129Z,99.90
2018-03-31T03:49:47.779Z,99.90
2018-03-31T03:52:24.344Z,99.90
2018-03-31T03:55:03.554Z,99.90
2018-03-31T03:57:41.202Z,99.90
2018-03-31T04:00:16.695Z,99.90
2018-03-31T04:02:52.070Z,99.90
2018-03-31T04:05:27.294Z,99.90
2018-03-31T04:08:05.840Z,99.90
2018-03-31T04:10:41.627Z,99.90
2018-03-31T04:13:17.662Z,99.90
2018-03-31T04:15:53.155Z,99.90
2018-03-31T04:18:29.347Z,99.90
2018-03-31T04:21:06.654Z,99.90
2018-03-31T04:23:43.138Z,99.90
2018-03-31T04:26:18.759Z,99.90
2018-03-31T04:28:54.388Z,99.90
2018-03-31T04:31:31.723Z,99.90
2018-03-31T04:34:07.181Z,99.90
2018-03-31T04:36:36.821Z,99.90
2018-03-31T04:39:12.690Z,99.90
2018-03-31T04:41:48.087Z,99.90
2018-03-31T04:44:24.093Z,99.90
2018-03-31T04:47:01.280Z,99.90
2018-03-31T04:49:37.527Z,99.90
2018-03-31T04:52:17.601Z,99.90
2018-03-31T04:54:55.095Z,99.90
2018-03-31T04:57:31.584Z,99.90
2018-03-31T05:00:13.719Z,99.90
2018-03-31T05:02:49.233Z,99.90
2018-03-31T05:05:26.174Z,99.90
2018-03-31T05:08:02.004Z,99.90
2018-03-31T05:10:38.207Z,99.90
2018-03-31T05:13:14.516Z,99.90
2018-03-31T05:15:51.270Z,99.90
2018-03-31T05:18:28.522Z,99.90
2018-03-31T05:21:07.410Z,99.90
2018-03-31T05:23:44.907Z,99.90
2018-03-31T05:26:20.890Z,99.90
2018-03-31T05:28:56.684Z,99.90
2018-03-31T05:31:34.970Z,99.90
2018-03-31T05:34:10.808Z,99.90
2018-03-31T05:36:49.455Z,99.90
2018-03-31T05:39:24.832Z,99.90
2018-03-31T05:42:01.885Z,99.90
2018-03-31T05:44:40.452Z,99.90
2018-03-31T05:47:18.373Z,99.90
2018-03-31T05:49:55.140Z,99.90
2018-03-31T05:52:30.479Z,99.90
2018-03-31T05:55:07.739Z,99.90
2018-03-31T05:57:44.579Z,99.90
2018-03-31T06:00:20.613Z,99.90
2018-03-31T06:02:57.557Z,99.90
2018-03-31T06:05:33.088Z,99.90
2018-03-31T06:08:10.015Z,99.90
2018-03-31T06:10:48.294Z,99.90
2018-03-31T06:13:28.507Z,99.90
2018-03-31T06:16:04.836Z,99.90
2018-03-31T06:18:40.916Z,99.90
2018-03-31T06:21:17.504Z,99.90
2018-03-31T06:23:54.889Z,99.90
2018-03-31T06:26:30.127Z,99.90
2018-03-31T06:29:05.522Z,99.90
2018-03-31T06:31:42.310Z,99.90
2018-03-31T06:34:20.100Z,99.90
2018-03-31T06:36:56.007Z,99.90
2018-03-31T06:39:31.260Z,99.90
2018-03-31T06:42:09.107Z,99.90
2018-03-31T06:44:48.228Z,99.90
2018-03-31T06:47:24.245Z,99.90
2018-03-31T06:50:02.038Z,99.90
2018-03-31T06:52:38.959Z,99.90
2018-03-31T06:55:15.484Z,99.90
2018-03-31T06:57:45.372Z,99.90
2018-03-31T07:00:15.447Z,99.20
2018-03-31T07:02:45.615Z,99.60
2018-03-31T07:05:16.086Z,98.90
2018-03-31T07:07:54.425Z,98.70
2018-03-31T07:10:31.032Z,99.90
2018-03-31T07:13:08.273Z,99.90
2018-03-31T07:15:45.138Z,99.10
2018-03-31T07:18:15.548Z,99.10
2018-03-31T07:20:51.707Z,98.30
2018-03-31T07:23:29.781Z,96.60
2018-03-31T07:26:04.959Z,95.30
2018-03-31T07:28:40.605Z,95.10
2018-03-31T07:31:19.198Z,96.90
2018-03-31T07:33:55.095Z,96.90
2018-03-31T07:36:24.919Z,95.70
2018-03-31T07:39:02.833Z,93.60
2018-03-31T07:41:40.399Z,94.50
2018-03-31T07:44:17.419Z,94.50
2018-03-31T07:46:47.708Z,94.70
2018-03-31T07:49:23.234Z,95.40
2018-03-31T07:52:00.132Z,94.90
2018-03-31T07:54:36.289Z,94.60
2018-03-31T07:57:13.051Z,94.80
2018-03-31T07:59:50.342Z,92.90
2018-03-31T08:02:25.815Z,91.00
2018-03-31T08:05:02.429Z,91.20
2018-03-31T08:07:32.997Z,91.10
2018-03-31T08:10:08.435Z,90.70
2018-03-31T08:12:45.289Z,90.70
2018-03-31T08:15:22.140Z,89.50
2018-03-31T08:17:57.750Z,84.90
2018-03-31T08:20:34.603Z,82.20
2018-03-31T08:23:09.716Z,82.20
2018-03-31T08:25:46.372Z,88.20
2018-03-31T08:28:16.621Z,89.60
2018-03-31T08:30:54.456Z,85.30
2018-03-31T08:33:30.635Z,82.60
2018-03-31T08:36:06.273Z,82.50
2018-03-31T08:38:36.834Z,81.10
2018-03-31T08:41:13.899Z,81.10
2018-03-31T08:43:51.558Z,80.20
2018-03-31T08:46:29.488Z,79.90
2018-03-31T08:49:06.934Z,85.00
2018-03-31T08:51:43.715Z,85.00
2018-03-31T08:54:20.918Z,84.40
2018-03-31T08:56:51.356Z,77.60
2018-03-31T08:59:30.525Z,71.00
2018-03-31T09:02:07.404Z,71.00
2018-03-31T09:04:44.123Z,68.80
2018-03-31T09:07:21.185Z,66.40
2018-03-31T09:09:57.080Z,65.00
2018-03-31T09:12:27.993Z,64.00
2018-03-31T09:15:06.454Z,64.00
2018-03-31T09:17:36.690Z,62.10
2018-03-31T09:20:12.776Z,63.00
2018-03-31T09:22:45.782Z,65.40
2018-03-31T09:25:18.666Z,60.10
2018-03-31T09:27:54.268Z,60.10
2018-03-31T09:30:31.222Z,59.60
2018-03-31T09:33:10.614Z,56.30
2018-03-31T09:35:47.008Z,54.60
2018-03-31T09:38:25.129Z,55.70
2018-03-31T09:41:04.572Z,53.30
2018-03-31T09:43:40.608Z,51.30
2018-03-31T09:46:19.355Z,50.60
2018-03-31T09:48:55.981Z,50.50
2018-03-31T09:51:33.433Z,51.40
2018-03-31T09:54:10.895Z,53.50
2018-03-31T09:56:49.700Z,52.40
2018-03-31T09:59:26.545Z,52.60
2018-03-31T10:02:01.934Z,52.50
2018-03-31T10:04:43.116Z,55.10
2018-03-31T10:07:20.771Z,52.20
2018-03-31T10:09:58.600Z,52.20
2018-03-31T10:12:36.541Z,56.20
2018-03-31T10:15:12.310Z,56.20
2018-03-31T10:17:50.137Z,55.30
2018-03-31T10:20:25.582Z,54.70
2018-03-31T10:23:02.412Z,56.10
2018-03-31T10:25:39.320Z,54.50
2018-03-31T10:28:17.233Z,51.70
2018-03-31T10:30:55.498Z,53.90
2018-03-31T10:33:31.452Z,52.70
2018-03-31T10:36:07.619Z,50.00
2018-03-31T10:38:38.213Z,48.70
2018-03-31T10:41:14.858Z,48.80
2018-03-31T10:43:46.410Z,48.70
2018-03-31T10:46:22.611Z,50.50
2018-03-31T10:49:01.662Z,52.60
2018-03-31T10:51:38.624Z,52.60
2018-03-31T10:54:18.956Z,55.50
2018-03-31T10:56:55.581Z,55.40
2018-03-31T10:59:32.368Z,56.70
2018-03-31T11:02:09.170Z,56.70
2018-03-31T11:04:45.950Z,58.50
2018-03-31T11:07:23.240Z,59.50
2018-03-31T11:10:00.486Z,60.20
2018-03-31T11:12:36.340Z,61.50
2018-03-31T11:15:13.830Z,62.50
2018-03-31T11:17:50.391Z,62.90
2018-03-31T11:20:25.761Z,64.80
2018-03-31T11:23:01.382Z,65.20
2018-03-31T11:25:39.478Z,64.00
2018-03-31T11:28:18.059Z,63.90
2018-03-31T11:30:53.875Z,64.30
2018-03-31T11:33:30.562Z,64.80
2018-03-31T11:36:08.867Z,66.40
2018-03-31T11:38:47.836Z,64.40
2018-03-31T11:41:24.921Z,60.50
2018-03-31T11:44:02.412Z,58.40
2018-03-31T11:46:40.969Z,56.90
2018-03-31T11:49:19.529Z,56.90
2018-03-31T11:51:56.608Z,58.30
2018-03-31T11:54:32.386Z,57.70
2018-03-31T11:57:10.956Z,54.50
2018-03-31T11:59:48.727Z,54.50
2018-03-31T12:02:25.293Z,54.60
2018-03-31T12:05:01.863Z,56.00
2018-03-31T12:07:39.722Z,57.50
2018-03-31T12:10:18.019Z,58.30
2018-03-31T12:12:55.160Z,57.50
2018-03-31T12:15:33.535Z,58.70
2018-03-31T12:18:10.641Z,58.70
2018-03-31T12:20:48.414Z,58.70
2018-03-31T12:23:28.012Z,57.60
2018-03-31T12:26:06.780Z,57.00
2018-03-31T12:28:45.086Z,54.60
2018-03-31T12:31:14.990Z,53.10
2018-03-31T12:33:52.818Z,54.10
2018-03-31T12:36:30.086Z,54.80
2018-03-31T12:39:06.721Z,55.10
2018-03-31T12:41:43.507Z,54.90
2018-03-31T12:44:14.866Z,56.90
2018-03-31T12:46:51.259Z,58.50
2018-03-31T12:49:27.926Z,58.40
2018-03-31T12:52:03.157Z,59.20
2018-03-31T12:54:39.100Z,59.20
2018-03-31T12:57:16.485Z,58.70
2018-03-31T12:59:53.075Z,58.00
2018-03-31T13:02:23.072Z,56.40
2018-03-31T13:04:59.903Z,57.10
2018-03-31T13:07:38.226Z,57.90
2018-03-31T13:10:14.508Z,60.50
2018-03-31T13:12:46.160Z,59.80
2018-03-31T13:15:22.555Z,59.60
2018-03-31T13:17:58.061Z,57.90
2018-03-31T13:20:34.658Z,58.10
2018-03-31T13:23:10.428Z,58.20
2018-03-31T13:25:47.649Z,57.90
2018-03-31T13:28:18.634Z,58.50
2018-03-31T13:30:54.261Z,58.50
2018-03-31T13:33:32.599Z,59.00
2018-03-31T13:36:10.083Z,59.40
2018-03-31T13:38:47.986Z,60.30
2018-03-31T13:41:24.509Z,60.90
2018-03-31T13:44:02.668Z,62.00
2018-03-31T13:46:35.290Z,62.00
2018-03-31T13:49:09.921Z,63.00
2018-03-31T13:51:46.606Z,63.70
2018-03-31T13:54:16.395Z,63.50
2018-03-31T13:56:54.833Z,63.60
2018-03-31T13:59:31.583Z,63.60
2018-03-31T14:02:10.847Z,63.90
2018-03-31T14:04:45.767Z,63.80
2018-03-31T14:07:21.673Z,64.60
2018-03-31T14:09:53.219Z,64.50
2018-03-31T14:12:28.906Z,65.20
2018-03-31T14:15:05.318Z,65.60
2018-03-31T14:17:41.692Z,65.60
2018-03-31T14:20:17.799Z,66.00
2018-03-31T14:22:54.173Z,67.00
2018-03-31T14:25:32.348Z,66.20
2018-03-31T14:28:08.553Z,66.10
2018-03-31T14:30:46.142Z,66.60
2018-03-31T14:33:22.917Z,67.00
2018-03-31T14:36:00.129Z,66.00
2018-03-31T14:38:30.388Z,66.00
2018-03-31T14:41:07.710Z,65.20
2018-03-31T14:43:44.397Z,65.40
2018-03-31T14:46:21.992Z,65.40
2018-03-31T14:48:57.634Z,65.80
2018-03-31T14:51:28.789Z,65.80
2018-03-31T14:54:05.365Z,66.10
2018-03-31T14:56:41.377Z,65.60
2018-03-31T14:59:16.303Z,65.70
2018-03-31T15:01:54.225Z,64.70
2018-03-31T15:04:29.595Z,64.60
2018-03-31T15:07:05.237Z,65.00
2018-03-31T15:09:41.259Z,64.40
2018-03-31T15:12:11.249Z,63.00
2018-03-31T15:14:47.551Z,62.20
2018-03-31T15:17:24.974Z,60.20
2018-03-31T15:20:04.162Z,60.10
2018-03-31T15:22:40.064Z,59.60
2018-03-31T15:25:11.903Z,59.90
2018-03-31T15:27:47.714Z,60.70
2018-03-31T15:30:24.351Z,60.70
2018-03-31T15:33:03.319Z,61.40
2018-03-31T15:35:41.749Z,62.50
2018-03-31T15:38:18.809Z,64.40
2018-03-31T15:40:48.782Z,63.60
2018-03-31T15:43:27.020Z,63.80
2018-03-31T15:46:03.685Z,64.10
2018-03-31T15:48:38.126Z,64.10
2018-03-31T15:51:14.474Z,65.10
2018-03-31T15:53:52.657Z,65.40
2018-03-31T15:56:28.887Z,65.90
2018-03-31T15:59:06.776Z,67.10
2018-03-31T16:01:42.621Z,67.10
2018-03-31T16:04:19.886Z,67.30
2018-03-31T16:06:56.955Z,67.00
2018-03-31T16:09:34.137Z,66.50
2018-03-31T16:12:11.205Z,66.50
2018-03-31T16:14:46.386Z,66.70
2018-03-31T16:17:22.899Z,66.80
2018-03-31T16:20:00.377Z,67.90
2018-03-31T16:22:38.679Z,68.40
2018-03-31T16:25:15.286Z,68.40
2018-03-31T16:27:52.111Z,68.70
2018-03-31T16:30:27.945Z,68.80
2018-03-31T16:32:59.399Z,68.80
2018-03-31T16:35:36.451Z,69.20
2018-03-31T16:38:12.728Z,69.30
2018-03-31T16:40:49.494Z,69.20
2018-03-31T16:43:25.920Z,69.30
2018-03-31T16:46:02.455Z,68.70
2018-03-31T16:48:40.582Z,68.60
2018-03-31T16:51:18.394Z,68.90
2018-03-31T16:53:55.525Z,68.80
2018-03-31T16:56:30.745Z,68.80
2018-03-31T16:59:08.139Z,69.20
2018-03-31T17:01:43.674Z,69.20
2018-03-31T17:04:14.829Z,69.50
2018-03-31T17:06:46.069Z,70.70
2018-03-31T17:09:18.097Z,70.60
2018-03-31T17:11:53.647Z,71.40
2018-03-31T17:14:30.983Z,72.10
2018-03-31T17:17:09.300Z,72.10
2018-03-31T17:19:45.273Z,72.50
2018-03-31T17:22:21.320Z,72.30
2018-03-31T17:24:56.810Z,72.20
2018-03-31T17:27:33.270Z,71.00
2018-03-31T17:30:08.861Z,71.70
2018-03-31T17:32:46.190Z,74.40
2018-03-31T17:35:22.788Z,74.40
2018-03-31T17:37:58.191Z,75.40
2018-03-31T17:40:34.015Z,75.40
2018-03-31T17:43:11.224Z,76.60
2018-03-31T17:45:47.214Z,76.60
2018-03-31T17:48:27.162Z,76.80
2018-03-31T17:51:03.739Z,77.60
2018-03-31T17:53:34.326Z,77.50
2018-03-31T17:56:10.812Z,79.80
2018-03-31T17:58:45.803Z,81.10
2018-03-31T18:01:23.662Z,81.70
2018-03-31T18:04:01.001Z,81.70
2018-03-31T18:06:40.739Z,82.80
2018-03-31T18:09:17.902Z,86.00
2018-03-31T18:11:55.406Z,87.10
2018-03-31T18:14:25.571Z,87.10
2018-03-31T18:17:04.212Z,89.80
2018-03-31T18:19:40.394Z,90.80
2018-03-31T18:22:18.538Z,92.10
2018-03-31T18:24:55.301Z,96.20
2018-03-31T18:27:32.732Z,97.70
2018-03-31T18:30:02.325Z,97.70
2018-03-31T18:32:40.237Z,99.70
2018-03-31T18:35:16.229Z,99.90
2018-03-31T18:37:52.097Z,99.90
2018-03-31T18:40:28.293Z,99.90
2018-03-31T18:43:03.879Z,99.90
2018-03-31T18:45:39.016Z,99.90
2018-03-31T18:48:16.003Z,99.90
2018-03-31T18:50:54.208Z,99.90
2018-03-31T18:53:30.107Z,99.90
2018-03-31T18:56:07.601Z,99.90
2018-03-31T18:58:43.772Z,99.90
2018-03-31T19:01:20.024Z,99.90
2018-03-31T19:03:57.499Z,99.90
2018-03-31T19:06:34.589Z,99.90
2018-03-31T19:09:05.406Z,99.90
2018-03-31T19:11:35.246Z,99.90
2018-03-31T19:14:12.019Z,99.90
2018-03-31T19:16:54.185Z,99.90
2018-03-31T19:19:25.366Z,99.90
2018-03-31T19:21:55.500Z,99.90
2018-03-31T19:24:32.314Z,99.90
2018-03-31T19:27:14.319Z,99.90
2018-03-31T19:29:52.709Z,99.90
2018-03-31T19:32:28.464Z,99.90
2018-03-31T19:34:58.454Z,99.90
2018-03-31T19:37:28.638Z,99.90
2018-03-31T19:40:06.025Z,99.90
2018-03-31T19:42:44.105Z,99.90
2018-03-31T19:45:21.186Z,99.90
2018-03-31T19:47:56.890Z,99.90
2018-03-31T19:50:33.367Z,99.90
2018-03-31T19:53:11.220Z,99.90
2018-03-31T19:55:48.898Z,99.90
2018-03-31T19:58:18.476Z,99.90
2018-03-31T20:00:50.940Z,99.90
2018-03-31T20:03:28.266Z,99.90
2018-03-31T20:06:05.358Z,99.90
2018-03-31T20:08:40.427Z,99.90
2018-03-31T20:11:17.178Z,99.90
2018-03-31T20:13:52.919Z,99.90
2018-03-31T20:16:31.918Z,99.90
2018-03-31T20:19:09.238Z,99.90
2018-03-31T20:21:45.357Z,99.90
2018-03-31T20:24:16.011Z,99.90
2018-03-31T20:26:52.025Z,99.90
2018-03-31T20:29:29.169Z,99.90
2018-03-31T20:32:07.259Z,99.90
2018-03-31T20:34:45.783Z,99.90
2018-03-31T20:37:21.733Z,99.90
2018-03-31T20:39:59.723Z,99.90
2018-03-31T20:42:30.495Z,99.90
2018-03-31T20:45:05.842Z,99.90
2018-03-31T20:47:41.699Z,99.90
2018-03-31T20:50:19.376Z,99.90
2018-03-31T20:52:56.261Z,99.90
2018-03-31T20:55:26.468Z,99.90
2018-03-31T20:58:03.882Z,99.90
2018-03-31T21:00:34.553Z,99.90
2018-03-31T21:03:11.726Z,99.90
2018-03-31T21:05:48.691Z,99.90
2018-03-31T21:08:19.335Z,99.90
2018-03-31T21:10:49.415Z,99.90
2018-03-31T21:13:24.800Z,99.90
2018-03-31T21:16:00.107Z,99.90
2018-03-31T21:18:36.693Z,99.90
2018-03-31T21:21:13.855Z,99.90
2018-03-31T21:23:50.911Z,99.90
2018-03-31T21:26:21.940Z,99.90
2018-03-31T21:28:58.982Z,99.90
2018-03-31T21:31:36.147Z,99.90
2018-03-31T21:34:11.847Z,99.90
2018-03-31T21:36:48.026Z,99.90
2018-03-31T21:39:23.700Z,99.90
2018-03-31T21:41:59.524Z,99.90
2018-03-31T21:44:34.483Z,99.90
2018-03-31T21:47:11.527Z,99.90
2018-03-31T21:49:47.156Z,99.90
2018-03-31T21:52:23.581Z,99.90
2018-03-31T21:55:00.363Z,99.90
2018-03-31T21:57:36.139Z,99.90
2018-03-31T22:00:12.939Z,99.90
2018-03-31T22:02:42.943Z,99.90
2018-03-31T22:05:18.302Z,99.90
2018-03-31T22:07:54.967Z,99.90
2018-03-31T22:10:30.994Z,99.90
2018-03-31T22:13:14.160Z,99.90
2018-03-31T22:15:49.735Z,99.90
2018-03-31T22:18:21.459Z,99.90
2018-03-31T22:20:57.447Z,99.90
2018-03-31T22:23:35.213Z,99.90
2018-03-31T22:26:10.970Z,99.90
2018-03-31T22:28:46.722Z,99.90
2018-03-31T22:31:22.633Z,99.90
2018-03-31T22:33:59.576Z,99.90
2018-03-31T22:36:35.574Z,99.90
2018-03-31T22:39:13.689Z,99.90
2018-03-31T22:41:50.221Z,99.90
2018-03-31T22:44:20.168Z,99.90
2018-03-31T22:46:56.753Z,99.90
2018-03-31T22:49:28.400Z,99.90
2018-03-31T22:52:05.320Z,99.90
2018-03-31T22:54:42.211Z,99.90
2018-03-31T22:57:19.336Z,99.90
2018-03-31T22:59:56.841Z,99.90
2018-03-31T23:02:34.742Z,99.90
2018-03-31T23:05:13.801Z,99.90
2018-03-31T23:07:50.683Z,99.90
2018-03-31T23:10:26.887Z,99.90
2018-03-31T23:13:02.779Z,99.90
2018-03-31T23:15:33.576Z,99.90
2018-03-31T23:18:09.843Z,99.90
2018-03-31T23:20:40.711Z,99.90
2018-03-31T23:23:20.686Z,99.90
2018-03-31T23:25:57.119Z,99.90
2018-03-31T23:28:34.721Z,99.90
2018-03-31T23:31:11.519Z,99.90
2018-03-31T23:33:49.401Z,99.90
2018-03-31T23:36:26.265Z,99.90
2018-03-31T23:38:56.667Z,99.90
2018-03-31T23:41:33.471Z,99.90
2018-03-31T23:44:09.343Z,99.90
2018-03-31T23:46:45.349Z,99.90
2018-03-31T23:49:22.303Z,99.90
2018-03-31T23:51:59.429Z,99.90
2018-03-31T23:54:30.086Z,99.90
2018-03-31T23:57:06.487Z,99.90
2018-03-31T23:59:44.970Z,99.90
